KDGW/DGW METAR and TAF weather

Enter ICAO airport designator
Station Type Date Time Source
KDGW METAR 2022/06/26 08:53 UTC NOAA

KDGW 260853Z AUTO 16003KT 10SM BKN065 BKN120 08/03 A3050 RMK AO2 SLP301 T00780028 53001


Station Type Date Time Source
KDGW Decoded METAR 2022/06/26 08:53 UTC NOAA

DOUGLAS CONVERSE COUNTY, WY, United States (KDGW) 42-48N 105-23W 1499M
Jun 26, 2022 - 04:53 AM EDT / 2022.06.26 0853 UTC
Wind: from the SSE (160 degrees) at 3 MPH (3 KT):0
Visibility: 10 mile(s):0
Sky conditions: mostly cloudy
Temperature: 46.0 F (7.8 C)
Dew Point: 37.0 F (2.8 C)
Relative Humidity: 70%
Pressure (altimeter): 30.5 in. Hg (1032 hPa)
Pressure tendency: 0.00 inches (0.1 hPa) higher than three hours ago
ob: KDGW 260853Z AUTO 16003KT 10SM BKN065 BKN120 08/03 A3050 RMK AO2 SLP301 T00780028 53001
cycle: 9

Station Type Date Time Source
KDGW TAF UTC NOAA

Error!

Example: see airport list